createdAt,value
2019-06-07T00:02:01.079Z,80.07
2019-06-07T00:04:31.068Z,80.52
2019-06-07T00:07:03.747Z,79.86
2019-06-07T00:09:33.774Z,80.08
2019-06-07T00:12:03.967Z,80.84
2019-06-07T00:14:33.978Z,80.46
2019-06-07T00:17:04.185Z,80.26
2019-06-07T00:19:34.195Z,82.19
2019-06-07T00:22:16.569Z,83.23
2019-06-07T00:24:36.053Z,80.70
2019-06-07T00:27:06.111Z,80.31
2019-06-07T00:29:36.239Z,80.29
2019-06-07T00:32:06.327Z,80.84
2019-06-07T00:34:36.327Z,79.98
2019-06-07T00:37:07.103Z,81.01
2019-06-07T00:39:37.204Z,83.56
2019-06-07T00:42:07.314Z,82.76
2019-06-07T00:44:37.359Z,81.11
2019-06-07T00:47:07.346Z,80.78
2019-06-07T00:49:41.467Z,79.84
2019-06-07T00:52:09.139Z,80.85
2019-06-07T00:54:39.301Z,80.49
2019-06-07T00:57:09.312Z,81.20
2019-06-07T00:59:39.388Z,80.29
2019-06-07T01:02:09.387Z,82.37
2019-06-07T01:04:39.471Z,82.37
2019-06-07T01:07:09.493Z,80.64
2019-06-07T01:09:40.626Z,80.32
2019-06-07T01:12:10.618Z,81.45
2019-06-07T01:14:40.669Z,82.86
2019-06-07T01:17:27.601Z,81.56
2019-06-07T01:19:50.992Z,81.66
2019-06-07T01:22:23.412Z,81.09
2019-06-07T01:24:52.754Z,80.98
2019-06-07T01:27:25.446Z,82.80
2019-06-07T01:29:54.573Z,80.85
2019-06-07T01:32:27.106Z,82.80
2019-06-07T01:34:56.423Z,83.86
2019-06-07T01:37:27.974Z,81.46
2019-06-07T01:39:58.207Z,81.12
2019-06-07T01:42:30.483Z,81.52
2019-06-07T01:45:00.049Z,81.86
2019-06-07T01:47:32.186Z,83.03
2019-06-07T01:50:01.871Z,83.09
2019-06-07T01:52:32.890Z,81.50
2019-06-07T01:55:02.895Z,81.89
2019-06-07T01:57:45.578Z,81.39
2019-06-07T02:00:07.614Z,82.13
2019-06-07T02:02:37.632Z,81.49
2019-06-07T02:05:08.962Z,82.25
2019-06-07T02:07:39.007Z,83.24
2019-06-07T02:10:10.659Z,82.55
2019-06-07T02:12:43.547Z,81.92
2019-06-07T02:15:13.252Z,82.52
2019-06-07T02:17:43.352Z,82.97
2019-06-07T02:20:13.627Z,82.88
2019-06-07T02:22:43.678Z,81.67
2019-06-07T02:27:45.535Z,81.78
2019-06-07T02:30:40.299Z,81.81
2019-06-07T02:32:48.301Z,83.33
2019-06-07T02:35:18.389Z,83.10
2019-06-07T02:37:48.438Z,82.21
2019-06-07T02:40:18.794Z,82.71
2019-06-07T02:42:48.908Z,82.21
2019-06-07T02:45:20.027Z,81.74
2019-06-07T02:47:51.740Z,82.21
2019-06-07T02:50:25.594Z,80.84
2019-06-07T02:52:55.358Z,81.54
2019-06-07T02:55:29.107Z,82.18
2019-06-07T02:57:57.084Z,82.12
2019-06-07T03:01:05.484Z,82.07
2019-06-07T03:03:18.497Z,83.63
2019-06-07T03:05:48.687Z,81.81
2019-06-07T03:08:18.729Z,82.72
2019-06-07T03:10:50.375Z,89.47
2019-06-07T03:13:22.735Z,89.28
2019-06-07T03:15:54.447Z,89.05
2019-06-07T03:18:42.346Z,89.66
2019-06-07T03:21:13.974Z,89.68
2019-06-07T03:23:45.192Z,85.41
2019-06-07T03:26:17.733Z,85.35
2019-06-07T03:28:47.803Z,85.13
2019-06-07T03:31:17.817Z,85.03
2019-06-07T03:33:47.807Z,86.44
2019-06-07T03:36:23.824Z,87.38
2019-06-07T03:38:51.432Z,87.69
2019-06-07T03:41:21.492Z,86.43
2019-06-07T03:43:51.492Z,87.37
2019-06-07T03:46:21.547Z,87.82
2019-06-07T03:48:51.633Z,88.07
2019-06-07T03:51:25.322Z,88.84
2019-06-07T03:53:53.411Z,89.22
2019-06-07T03:56:23.438Z,89.29
2019-06-07T03:58:53.518Z,88.06
2019-06-07T04:01:23.605Z,88.08
2019-06-07T04:03:53.695Z,86.90
2019-06-07T04:06:24.935Z,86.16
2019-06-07T04:08:54.965Z,85.42
2019-06-07T04:11:24.969Z,85.22
2019-06-07T04:13:54.981Z,87.10
2019-06-07T04:16:25.019Z,87.83
2019-06-07T04:18:55.027Z,85.67
2019-06-07T04:21:25.049Z,85.84
2019-06-07T04:23:55.177Z,85.17
2019-06-07T04:26:25.172Z,85.14
2019-06-07T04:29:31.808Z,84.45
2019-06-07T04:31:26.935Z,84.44
2019-06-07T04:33:57.089Z,84.75
2019-06-07T04:36:41.831Z,83.96
2019-06-07T04:39:00.996Z,84.13
2019-06-07T04:41:33.661Z,84.16
2019-06-07T04:44:04.925Z,84.25
2019-06-07T04:46:39.866Z,84.25
2019-06-07T04:49:12.155Z,84.43
2019-06-07T04:51:43.817Z,84.30
2019-06-07T04:54:13.834Z,84.20
2019-06-07T04:56:44.759Z,84.27
2019-06-07T05:00:00.377Z,85.20
2019-06-07T05:01:46.707Z,85.68
2019-06-07T05:04:16.736Z,85.09
2019-06-07T05:06:46.789Z,84.04
2019-06-07T05:09:16.793Z,83.96
2019-06-07T05:11:46.872Z,83.62
2019-06-07T05:14:17.070Z,83.64
2019-06-07T05:16:47.158Z,84.55
2019-06-07T05:19:17.378Z,84.22
2019-06-07T05:22:02.615Z,84.01
2019-06-07T05:24:19.118Z,84.11
2019-06-07T05:26:49.119Z,84.55
2019-06-07T05:29:19.223Z,84.08
2019-06-07T05:31:49.718Z,88.27
2019-06-07T05:34:19.886Z,87.84
2019-06-07T05:37:10.381Z,87.55
2019-06-07T05:39:21.599Z,87.23
2019-06-07T05:41:51.685Z,87.46
2019-06-07T05:44:21.738Z,86.11
2019-06-07T05:46:51.741Z,87.49
2019-06-07T05:49:21.757Z,87.67
2019-06-07T05:51:51.775Z,87.69
2019-06-07T05:54:21.819Z,88.16
2019-06-07T05:56:51.854Z,87.77
2019-06-07T05:59:21.879Z,87.00
2019-06-07T06:01:59.830Z,87.29
2019-06-07T06:04:23.650Z,88.28
2019-06-07T06:06:53.666Z,88.04
2019-06-07T06:09:23.672Z,87.72
2019-06-07T06:12:01.726Z,87.21
2019-06-07T06:14:25.458Z,87.31
2019-06-07T06:16:55.514Z,87.25
2019-06-07T06:19:25.563Z,86.52
2019-06-07T06:21:55.566Z,88.69
2019-06-07T06:24:25.616Z,88.83
2019-06-07T06:27:14.911Z,85.45
2019-06-07T06:29:27.334Z,76.62
2019-06-07T06:32:40.470Z,84.80
2019-06-07T06:34:29.086Z,87.21
2019-06-07T06:36:59.137Z,86.83
2019-06-07T06:39:29.137Z,87.65
2019-06-07T06:42:03.736Z,87.48
2019-06-07T06:44:30.879Z,87.78
2019-06-07T06:47:00.953Z,86.85
2019-06-07T06:49:32.035Z,86.62
2019-06-07T06:52:02.115Z,86.21
2019-06-07T06:54:40.679Z,85.75
2019-06-07T06:57:19.180Z,84.88
2019-06-07T07:05:19.564Z,85.43
2019-06-07T07:07:52.626Z,86.61
2019-06-07T07:10:40.673Z,86.36
2019-06-07T07:13:10.894Z,86.29
2019-06-07T07:15:42.826Z,86.04
2019-06-07T07:18:12.962Z,76.56
2019-06-07T07:20:45.036Z,79.80
2019-06-07T07:23:14.868Z,84.73
2019-06-07T07:25:49.544Z,84.56
2019-06-07T07:28:16.647Z,83.74
2019-06-07T07:30:55.262Z,83.77
2019-06-07T07:33:24.991Z,79.94
2019-06-07T07:36:15.812Z,80.46
2019-06-07T07:38:26.945Z,75.56
2019-06-07T07:41:12.239Z,79.17
2019-06-07T07:43:29.787Z,74.83
2019-06-07T07:46:03.147Z,76.06
2019-06-07T07:48:31.749Z,78.04
2019-06-07T07:51:03.337Z,76.96
2019-06-07T07:53:48.583Z,77.47
2019-06-07T07:56:05.903Z,80.26
2019-06-07T07:58:36.322Z,79.52
2019-06-07T08:01:10.752Z,77.94
2019-06-07T08:03:38.392Z,79.78
2019-06-07T08:06:08.447Z,78.96
2019-06-07T08:08:38.510Z,77.44
2019-06-07T08:11:08.574Z,82.14
2019-06-07T08:13:38.845Z,76.19
2019-06-07T08:16:15.028Z,82.18
2019-06-07T08:18:40.644Z,82.76
2019-06-07T08:21:24.863Z,80.34
2019-06-07T08:23:42.360Z,77.21
2019-06-07T08:26:12.362Z,78.71
2019-06-07T08:28:42.441Z,81.37
2019-06-07T08:31:12.446Z,74.46
2019-06-07T08:33:42.450Z,77.86
2019-06-07T08:36:21.873Z,79.87
2019-06-07T08:38:48.338Z,79.78
2019-06-07T08:41:17.634Z,82.77
2019-06-07T08:43:49.216Z,82.89
2019-06-07T08:46:19.515Z,80.29
2019-06-07T08:48:49.997Z,81.69
2019-06-07T08:51:21.298Z,81.59
2019-06-07T08:54:08.672Z,82.40
2019-06-07T08:56:23.053Z,83.73
2019-06-07T08:59:00.367Z,80.57
2019-06-07T09:01:27.846Z,82.36
2019-06-07T09:04:02.650Z,82.47
2019-06-07T09:09:03.536Z,80.62
2019-06-07T09:11:33.359Z,79.34
2019-06-07T09:14:08.776Z,74.70
2019-06-07T09:16:35.708Z,74.81
2019-06-07T09:19:10.696Z,72.60
2019-06-07T09:21:37.750Z,72.30
2019-06-07T09:24:11.366Z,78.10
2019-06-07T09:26:39.658Z,78.81
2019-06-07T09:29:11.937Z,80.40
2019-06-07T09:31:52.844Z,79.94
2019-06-07T09:34:15.155Z,79.24
2019-06-07T09:36:47.190Z,80.21
2019-06-07T09:39:17.252Z,79.25
2019-06-07T09:41:50.065Z,77.49
2019-06-07T09:44:25.788Z,76.99
2019-06-07T09:47:12.951Z,76.10
2019-06-07T09:49:32.074Z,75.75
2019-06-07T09:51:55.760Z,77.63
2019-06-07T09:55:03.371Z,76.78
2019-06-07T09:57:00.329Z,75.28
2019-06-07T09:59:31.159Z,75.97
2019-06-07T10:02:03.608Z,75.61
2019-06-07T10:04:33.208Z,77.60
2019-06-07T10:07:10.548Z,76.65
2019-06-07T10:10:09.840Z,77.18
2019-06-07T10:12:08.525Z,77.39
2019-06-07T10:14:38.647Z,76.86
2019-06-07T10:17:09.199Z,79.30
2019-06-07T10:19:39.371Z,80.26
2019-06-07T10:22:09.737Z,79.42
2019-06-07T10:24:39.849Z,79.78
2019-06-07T10:27:10.964Z,81.30
2019-06-07T10:29:41.041Z,79.88
2019-06-07T10:32:11.512Z,78.65
2019-06-07T10:34:41.660Z,79.60
2019-06-07T10:37:15.487Z,79.98
2019-06-07T10:39:48.723Z,79.55
2019-06-07T10:42:15.128Z,78.58
2019-06-07T10:44:45.154Z,75.85
2019-06-07T10:47:15.149Z,76.15
2019-06-07T10:49:45.180Z,76.37
2019-06-07T10:52:15.193Z,76.53
2019-06-07T10:54:45.188Z,77.64
2019-06-07T10:57:16.206Z,76.93
2019-06-07T10:59:46.483Z,76.68
2019-06-07T11:02:16.549Z,76.25
2019-06-07T11:04:46.584Z,76.61
2019-06-07T11:07:16.581Z,75.61
2019-06-07T11:09:46.581Z,75.94
2019-06-07T11:12:16.581Z,75.07
2019-06-07T11:14:46.582Z,74.10
2019-06-07T11:17:17.877Z,74.09
2019-06-07T11:19:47.989Z,73.27
2019-06-07T11:22:18.589Z,74.86
2019-06-07T11:24:48.595Z,75.95
2019-06-07T11:27:19.159Z,73.22
2019-06-07T11:29:49.324Z,74.13
2019-06-07T11:32:19.379Z,73.96
2019-06-07T11:34:50.463Z,72.82
2019-06-07T11:37:20.478Z,72.86
2019-06-07T11:39:50.469Z,71.82
2019-06-07T11:42:20.557Z,71.29
2019-06-07T11:44:56.778Z,71.18
2019-06-07T11:47:22.263Z,70.89
2019-06-07T11:49:52.312Z,69.94
2019-06-07T11:52:22.293Z,69.74
2019-06-07T11:54:52.284Z,69.31
2019-06-07T11:57:22.270Z,68.61
2019-06-07T11:59:52.292Z,68.59
2019-06-07T12:02:22.267Z,70.06
2019-06-07T12:04:52.305Z,68.67
2019-06-07T12:07:22.302Z,67.10
2019-06-07T12:09:56.461Z,68.11
2019-06-07T12:12:24.043Z,65.46
2019-06-07T12:14:54.045Z,65.02
2019-06-07T12:17:25.119Z,66.25
2019-06-07T12:19:55.153Z,65.33
2019-06-07T12:22:25.237Z,66.36
2019-06-07T12:24:55.248Z,67.63
2019-06-07T12:27:25.323Z,67.75
2019-06-07T12:29:55.378Z,68.68
2019-06-07T12:32:25.386Z,68.76
2019-06-07T12:34:55.394Z,67.74
2019-06-07T12:37:42.010Z,67.52
2019-06-07T12:39:57.134Z,67.74
2019-06-07T12:42:27.117Z,67.03
2019-06-07T12:44:57.240Z,67.71
2019-06-07T12:47:27.220Z,69.12
2019-06-07T12:49:57.214Z,69.25
2019-06-07T12:52:27.208Z,68.66
2019-06-07T12:54:57.223Z,68.54
2019-06-07T12:57:27.223Z,67.27
2019-06-07T12:59:57.234Z,66.19
2019-06-07T13:02:27.252Z,66.06
2019-06-07T13:04:57.232Z,67.28
2019-06-07T13:07:27.975Z,66.51
2019-06-07T13:09:58.126Z,65.37
2019-06-07T13:12:28.271Z,65.35
2019-06-07T13:14:59.376Z,62.67
2019-06-07T13:17:29.361Z,64.12
2019-06-07T13:19:59.416Z,64.20
2019-06-07T13:22:29.407Z,64.73
2019-06-07T13:24:59.729Z,67.33
2019-06-07T13:27:33.367Z,67.14
2019-06-07T13:30:09.172Z,68.55
2019-06-07T13:32:33.242Z,68.91
2019-06-07T13:35:04.170Z,69.29
2019-06-07T13:37:34.237Z,68.64
2019-06-07T13:40:06.594Z,67.42
2019-06-07T13:42:36.572Z,65.46
2019-06-07T13:45:08.821Z,67.22
2019-06-07T13:47:38.992Z,65.52
2019-06-07T13:50:10.524Z,63.40
2019-06-07T13:52:42.110Z,65.18
2019-06-07T13:55:15.180Z,53.58
2019-06-07T13:57:45.189Z,52.74
2019-06-07T14:00:16.422Z,54.18
2019-06-07T14:02:46.483Z,54.00
2019-06-07T14:05:16.617Z,56.04
2019-06-07T14:07:46.640Z,55.26
2019-06-07T14:10:16.705Z,57.26
2019-06-07T14:12:46.775Z,53.91
2019-06-07T14:15:18.385Z,54.09
2019-06-07T14:17:48.526Z,54.82
2019-06-07T14:20:18.697Z,54.89
2019-06-07T14:22:54.004Z,53.36
2019-06-07T14:25:23.018Z,53.35
2019-06-07T14:27:54.207Z,53.98
2019-06-07T14:30:25.906Z,51.79
2019-06-07T14:32:56.074Z,51.63
2019-06-07T14:35:26.721Z,50.92
2019-06-07T14:37:56.959Z,51.32
2019-06-07T14:40:27.915Z,52.97
2019-06-07T14:42:58.102Z,49.18
2019-06-07T14:45:28.178Z,50.92
2019-06-07T14:47:58.235Z,50.60
2019-06-07T14:50:28.390Z,51.58
2019-06-07T14:52:58.405Z,51.90
2019-06-07T14:55:28.973Z,52.01
2019-06-07T14:57:59.006Z,53.29
2019-06-07T15:00:41.128Z,54.26
2019-06-07T15:03:11.476Z,52.96
2019-06-07T15:05:41.491Z,55.89
2019-06-07T15:08:12.722Z,56.69
2019-06-07T15:10:42.708Z,56.92
2019-06-07T15:13:12.765Z,55.74
2019-06-07T15:15:42.892Z,53.32
2019-06-07T15:18:12.907Z,52.88
2019-06-07T15:20:42.911Z,54.89
2019-06-07T15:23:12.899Z,54.91
2019-06-07T15:25:42.909Z,55.03
2019-06-07T15:28:12.985Z,53.60
2019-06-07T15:30:43.010Z,54.52
2019-06-07T15:33:13.373Z,55.62
2019-06-07T15:35:43.361Z,54.92
2019-06-07T15:38:13.422Z,54.96
2019-06-07T15:40:43.428Z,55.38
2019-06-07T15:43:13.498Z,55.33
2019-06-07T15:45:43.492Z,55.27
2019-06-07T15:48:13.503Z,55.26
2019-06-07T15:50:43.601Z,54.42
2019-06-07T15:53:13.640Z,54.28
2019-06-07T15:55:45.805Z,55.03
2019-06-07T15:58:15.987Z,55.36
2019-06-07T16:00:45.983Z,55.36
2019-06-07T16:03:15.991Z,53.74
2019-06-07T16:05:45.993Z,51.30
2019-06-07T16:08:15.970Z,51.04
2019-06-07T16:10:46.029Z,53.04
2019-06-07T16:13:16.023Z,50.19
2019-06-07T16:15:46.015Z,46.07
2019-06-07T16:18:16.074Z,47.61
2019-06-07T16:20:46.065Z,47.69
2019-06-07T16:23:16.126Z,43.91
2019-06-07T16:25:46.110Z,47.30
2019-06-07T16:28:16.117Z,46.90
2019-06-07T16:30:46.141Z,46.24
2019-06-07T16:33:16.181Z,46.31
2019-06-07T16:35:46.181Z,47.00
2019-06-07T16:38:16.213Z,44.78
2019-06-07T16:40:46.212Z,46.02
2019-06-07T16:43:18.206Z,45.82
2019-06-07T16:45:49.064Z,44.81
2019-06-07T16:48:19.358Z,46.52
2019-06-07T16:50:49.430Z,46.63
2019-06-07T16:53:19.425Z,45.46
2019-06-07T16:55:49.435Z,43.53
2019-06-07T16:58:19.436Z,45.33
2019-06-07T17:00:49.558Z,45.77
2019-06-07T17:03:19.548Z,45.86
2019-06-07T17:05:50.561Z,46.22
2019-06-07T17:08:20.726Z,45.47
2019-06-07T17:10:50.702Z,43.88
2019-06-07T17:13:33.009Z,44.58
2019-06-07T17:15:52.458Z,42.68
2019-06-07T17:18:22.472Z,42.83
2019-06-07T17:20:52.477Z,42.77
2019-06-07T17:23:22.488Z,41.97
2019-06-07T17:25:52.484Z,41.35
2019-06-07T17:28:22.474Z,42.20
2019-06-07T17:30:52.626Z,46.15
2019-06-07T17:33:22.677Z,42.96
2019-06-07T17:35:52.770Z,42.77
2019-06-07T17:38:22.799Z,42.63
2019-06-07T17:40:52.821Z,47.52
2019-06-07T17:43:22.863Z,44.36
2019-06-07T17:45:52.858Z,46.95
2019-06-07T17:48:24.057Z,44.31
2019-06-07T17:50:55.144Z,39.96
2019-06-07T17:53:25.178Z,39.87
2019-06-07T17:55:55.172Z,48.07
2019-06-07T17:58:25.280Z,39.02
2019-06-07T18:00:55.326Z,39.52
2019-06-07T18:03:25.367Z,41.20
2019-06-07T18:05:55.488Z,42.03
2019-06-07T18:08:25.649Z,41.31
2019-06-07T18:10:56.726Z,43.61
2019-06-07T18:13:26.800Z,46.45
2019-06-07T18:15:59.471Z,40.48
2019-06-07T18:18:28.645Z,43.31
2019-06-07T18:20:58.629Z,47.96
2019-06-07T18:23:28.668Z,46.60
2019-06-07T18:25:58.895Z,46.77
2019-06-07T18:28:28.941Z,47.86
2019-06-07T18:30:59.021Z,46.93
2019-06-07T18:33:29.049Z,47.92
2019-06-07T18:35:59.506Z,47.92
2019-06-07T18:38:29.517Z,47.83
2019-06-07T18:40:59.703Z,47.72
2019-06-07T18:43:29.686Z,47.74
2019-06-07T18:45:59.700Z,48.11
2019-06-07T18:48:29.722Z,47.84
2019-06-07T18:50:59.762Z,47.07
2019-06-07T18:53:29.788Z,48.28
2019-06-07T18:55:59.790Z,51.11
2019-06-07T18:58:29.858Z,51.65
2019-06-07T19:00:59.853Z,51.13
2019-06-07T19:03:29.908Z,52.81
2019-06-07T19:05:59.893Z,53.78
2019-06-07T19:08:29.935Z,53.05
2019-06-07T19:10:59.947Z,53.37
2019-06-07T19:13:29.964Z,54.99
2019-06-07T19:16:00.018Z,54.99
2019-06-07T19:18:30.060Z,55.69
2019-06-07T19:21:00.735Z,55.99
2019-06-07T19:23:30.963Z,56.22
2019-06-07T19:26:00.979Z,56.38
2019-06-07T19:28:31.009Z,56.63
2019-06-07T19:31:01.343Z,58.76
2019-06-07T19:33:31.522Z,57.77
2019-06-07T19:36:01.885Z,58.97
2019-06-07T19:38:32.058Z,58.60
2019-06-07T19:41:16.544Z,57.76
2019-06-07T19:43:33.765Z,59.04
2019-06-07T19:46:03.762Z,59.33
2019-06-07T19:48:33.768Z,60.19
2019-06-07T19:51:03.839Z,60.45
2019-06-07T19:53:33.836Z,62.38
2019-06-07T19:56:03.925Z,60.81
2019-06-07T19:58:33.932Z,61.47
2019-06-07T20:21:13.994Z,62.11
2019-06-07T20:23:44.007Z,62.40
2019-06-07T20:26:13.996Z,61.85
2019-06-07T20:28:43.980Z,62.73
2019-06-07T20:31:13.995Z,63.32
2019-06-07T20:33:44.267Z,63.74
2019-06-07T20:36:14.306Z,63.39
2019-06-07T20:38:45.964Z,63.75
2019-06-07T20:41:15.982Z,63.56
2019-06-07T20:43:46.060Z,63.46
2019-06-07T20:46:16.171Z,64.35
2019-06-07T20:48:46.190Z,64.30
2019-06-07T20:51:16.169Z,64.66
2019-06-07T20:53:46.306Z,65.16
2019-06-07T20:56:16.288Z,64.67
2019-06-07T20:58:46.330Z,64.67
2019-06-07T21:01:16.389Z,66.23
2019-06-07T21:03:46.437Z,66.02
2019-06-07T21:06:16.410Z,66.12
2019-06-07T21:08:46.552Z,66.86
2019-06-07T21:11:16.537Z,67.32
2019-06-07T21:13:46.602Z,66.78
2019-06-07T21:16:16.658Z,67.43
2019-06-07T21:18:46.657Z,67.30
2019-06-07T21:21:16.717Z,67.72
2019-06-07T21:23:48.355Z,68.49
2019-06-07T21:26:18.422Z,68.56
2019-06-07T21:28:48.474Z,68.63
2019-06-07T21:31:20.130Z,69.04
2019-06-07T21:33:50.231Z,68.98
2019-06-07T21:36:20.222Z,68.62
2019-06-07T21:38:50.421Z,69.27
2019-06-07T21:41:20.499Z,68.84
2019-06-07T21:43:50.589Z,69.50
2019-06-07T21:46:20.989Z,68.67
2019-06-07T21:48:51.079Z,69.10
2019-06-07T21:51:21.087Z,69.46
2019-06-07T21:53:51.093Z,69.83
2019-06-07T21:56:21.103Z,69.82
2019-06-07T21:58:51.165Z,70.40
2019-06-07T22:01:22.167Z,70.54
2019-06-07T22:03:52.252Z,70.32
2019-06-07T22:06:22.372Z,70.34
2019-06-07T22:08:52.548Z,69.90
2019-06-07T22:11:22.597Z,70.26
2019-06-07T22:13:52.649Z,70.72
2019-06-07T22:16:28.935Z,70.65
2019-06-07T22:18:54.327Z,71.83
2019-06-07T22:21:24.365Z,72.01
2019-06-07T22:23:54.374Z,71.60
2019-06-07T22:26:24.365Z,71.74
2019-06-07T22:28:54.369Z,71.90
2019-06-07T22:31:24.376Z,72.12
2019-06-07T22:33:54.448Z,72.46
2019-06-07T22:36:24.461Z,72.58
2019-06-07T22:38:54.476Z,72.78
2019-06-07T22:41:24.561Z,73.17
2019-06-07T22:43:54.610Z,73.10
2019-06-07T22:46:36.985Z,73.13
2019-06-07T22:48:57.494Z,72.76
2019-06-07T22:51:27.478Z,72.89
2019-06-07T22:53:57.526Z,73.55
2019-06-07T22:56:38.179Z,73.32
2019-06-07T22:59:11.921Z,72.87
2019-06-07T23:01:39.880Z,73.37
2019-06-07T23:04:10.465Z,73.39
2019-06-07T23:06:40.564Z,73.27
2019-06-07T23:09:10.858Z,73.66
2019-06-07T23:11:40.848Z,73.74
2019-06-07T23:14:11.190Z,73.11
2019-06-07T23:16:54.882Z,73.42
2019-06-07T23:19:13.808Z,73.34
2019-06-07T23:21:43.942Z,73.45
2019-06-07T23:24:14.203Z,74.01
2019-06-07T23:26:44.254Z,73.50
2019-06-07T23:29:14.561Z,73.76
2019-06-07T23:31:44.543Z,73.88
2019-06-07T23:34:14.729Z,73.64
2019-06-07T23:36:44.735Z,74.02
2019-06-07T23:39:15.643Z,74.12
2019-06-07T23:41:45.622Z,73.88
2019-06-07T23:44:15.685Z,73.69
2019-06-07T23:46:45.681Z,73.98
2019-06-07T23:49:15.715Z,74.30
2019-06-07T23:51:45.705Z,74.02
2019-06-07T23:54:15.741Z,74.37
2019-06-07T23:56:45.716Z,74.45
2019-06-07T23:59:16.125Z,74.44
